createdAt,value
2022-09-14T05:56:23.008Z,99.90
2022-09-14T06:20:04.053Z,99.90
2022-09-14T06:40:32.582Z,99.90
2022-09-14T06:45:26.087Z,99.90
2022-09-14T06:50:19.734Z,99.90
2022-09-14T06:55:13.232Z,99.90
2022-09-14T07:00:09.522Z,99.90
2022-09-14T07:05:03.931Z,99.90
2022-09-14T07:09:57.357Z,99.90
2022-09-14T07:14:50.859Z,99.90
2022-09-14T07:19:46.132Z,99.90
2022-09-14T07:24:39.794Z,99.90
2022-09-14T07:29:33.717Z,99.90
2022-09-14T07:34:27.330Z,99.90
2022-09-14T07:39:22.473Z,99.90
2022-09-14T07:44:18.935Z,99.90
2022-09-14T07:49:13.379Z,99.90
2022-09-14T07:54:08.296Z,99.90
2022-09-14T07:59:24.205Z,99.90
2022-09-14T08:04:17.631Z,99.90
2022-09-14T08:09:11.045Z,99.90
2022-09-14T08:14:09.845Z,99.90
2022-09-14T08:19:04.972Z,99.90
2022-09-14T08:23:59.378Z,99.90
2022-09-14T08:28:53.522Z,99.90
2022-09-14T08:33:50.200Z,99.90
2022-09-14T08:38:43.756Z,99.90
2022-09-14T08:43:39.612Z,99.90
2022-09-14T08:48:38.312Z,99.90
2022-09-14T08:53:37.552Z,99.90
2022-09-14T08:58:48.098Z,99.90
2022-09-14T09:04:03.990Z,99.90
2022-09-14T09:09:07.964Z,99.90
2022-09-14T09:14:04.316Z,99.90
2022-09-14T09:19:01.079Z,99.90
2022-09-14T09:23:57.216Z,99.90
2022-09-14T09:28:55.679Z,99.90
2022-09-14T09:33:51.363Z,99.90
2022-09-14T09:38:48.780Z,99.90
2022-09-14T09:44:00.579Z,99.90
2022-09-14T09:48:54.405Z,99.90
2022-09-14T09:53:52.121Z,99.90
2022-09-14T09:58:46.676Z,99.90
2022-09-14T10:03:42.280Z,99.90
2022-09-14T10:08:42.564Z,99.90
2022-09-14T10:13:41.116Z,99.90
2022-09-14T10:18:35.686Z,97.90
2022-09-14T10:23:33.639Z,97.40
2022-09-14T10:28:30.299Z,95.90
2022-09-14T10:33:23.995Z,94.70
2022-09-14T10:38:43.084Z,94.50
2022-09-14T10:43:52.906Z,93.90
2022-09-14T10:49:03.505Z,94.40
2022-09-14T10:54:06.563Z,94.00
2022-09-14T10:59:13.689Z,92.80
2022-09-14T11:04:22.488Z,93.30
2022-09-14T11:09:24.789Z,92.80
2022-09-14T11:14:34.984Z,91.80
2022-09-14T11:19:36.255Z,90.60
2022-09-14T11:24:42.815Z,92.20
2022-09-14T11:29:41.348Z,91.90
2022-09-14T11:34:39.740Z,89.40
2022-09-14T11:39:39.137Z,86.70
2022-09-14T11:44:36.800Z,87.30
2022-09-14T11:49:39.867Z,88.10
2022-09-14T11:54:35.471Z,88.20
2022-09-14T11:59:52.067Z,88.30
2022-09-14T12:05:18.959Z,86.50
2022-09-14T12:10:21.788Z,88.60
2022-09-14T12:15:33.428Z,86.80
2022-09-14T12:20:42.835Z,87.00
2022-09-14T12:25:40.188Z,84.50
2022-09-14T12:31:13.061Z,84.70
2022-09-14T12:36:08.098Z,78.50
2022-09-14T12:41:02.951Z,76.50
2022-09-14T12:46:03.170Z,79.10
2022-09-14T12:50:58.488Z,80.20
2022-09-14T12:56:03.736Z,78.00
2022-09-14T13:01:06.505Z,75.00
2022-09-14T13:06:03.481Z,75.30
2022-09-14T13:10:57.000Z,75.50
2022-09-14T13:15:57.246Z,74.40
2022-09-14T13:20:52.392Z,71.80
2022-09-14T13:25:47.659Z,72.20
2022-09-14T13:30:43.425Z,73.80
2022-09-14T13:35:40.016Z,73.30
2022-09-14T13:40:39.828Z,71.50
2022-09-14T13:45:35.211Z,73.00
2022-09-14T13:50:29.040Z,73.20
2022-09-14T13:55:27.463Z,71.20
2022-09-14T14:00:22.640Z,71.90
2022-09-14T14:05:27.460Z,72.90
2022-09-14T14:10:29.153Z,74.50
2022-09-14T14:15:40.693Z,75.40
2022-09-14T14:20:37.814Z,76.30
2022-09-14T14:25:34.096Z,76.00
2022-09-14T14:30:30.259Z,76.90
2022-09-14T14:35:26.629Z,76.10
2022-09-14T14:40:22.075Z,78.60
2022-09-14T14:45:19.387Z,75.50
2022-09-14T14:50:17.158Z,71.80
2022-09-14T14:55:11.427Z,74.70
2022-09-14T15:00:08.227Z,75.30
2022-09-14T15:05:01.691Z,64.20
2022-09-14T15:09:55.217Z,64.90
2022-09-14T15:14:48.751Z,63.60
2022-09-14T15:19:44.044Z,67.50
2022-09-14T15:24:37.668Z,74.00
2022-09-14T15:29:31.231Z,74.30
2022-09-14T15:34:24.999Z,79.30
2022-09-14T15:39:22.579Z,77.00
2022-09-14T15:44:16.324Z,77.70
2022-09-14T15:49:12.971Z,80.40
2022-09-14T15:54:06.556Z,79.00
2022-09-14T15:59:02.116Z,75.40
2022-09-14T16:03:59.933Z,76.30
2022-09-14T16:08:53.703Z,77.30
2022-09-14T16:13:47.597Z,80.40
2022-09-14T16:18:43.108Z,82.90
2022-09-14T16:23:40.051Z,85.70
2022-09-14T16:28:33.498Z,86.40
2022-09-14T16:33:26.942Z,86.70
2022-09-14T16:38:21.766Z,87.10
2022-09-14T16:43:16.047Z,86.80
2022-09-14T16:48:09.847Z,86.30
2022-09-14T16:53:03.374Z,87.10
2022-09-14T16:57:58.683Z,86.90
2022-09-14T17:02:53.662Z,87.90
2022-09-14T17:07:47.061Z,87.80
2022-09-14T17:12:40.433Z,87.60
2022-09-14T17:17:35.534Z,87.30
2022-09-14T17:22:29.147Z,88.10
2022-09-14T17:27:23.373Z,88.00
2022-09-14T17:32:16.987Z,88.00
2022-09-14T17:37:11.877Z,88.70
2022-09-14T17:42:05.764Z,88.40
2022-09-14T17:46:59.451Z,88.40
2022-09-14T17:51:53.471Z,88.70
2022-09-14T17:56:48.922Z,90.20
2022-09-14T18:01:42.939Z,89.60
2022-09-14T18:06:38.953Z,90.90
2022-09-14T18:11:32.948Z,91.70
2022-09-14T18:16:28.702Z,93.00
2022-09-14T18:21:22.634Z,93.80
2022-09-14T18:26:16.482Z,93.70
2022-09-14T18:31:14.188Z,93.80
2022-09-14T18:36:10.851Z,94.30
2022-09-14T18:41:06.761Z,94.30
2022-09-14T18:46:01.078Z,94.30
2022-09-14T18:50:55.160Z,93.80
2022-09-14T18:55:50.479Z,94.90
2022-09-14T19:00:45.985Z,95.20
2022-09-14T19:10:28.689Z,95.90
2022-09-14T22:25:49.175Z,99.90
2022-09-14T22:30:45.727Z,99.90
2022-09-14T22:35:39.156Z,99.90
2022-09-14T22:40:32.672Z,99.90
2022-09-14T22:45:27.749Z,99.90
2022-09-14T22:50:21.369Z,99.90
